createdAt,value
2023-10-03T00:01:53.646Z,100376.14
2023-10-03T00:06:55.322Z,100381.14
2023-10-03T00:11:57.002Z,100380.21
2023-10-03T00:16:59.086Z,100374.31
2023-10-03T00:22:00.859Z,100371.64
2023-10-03T00:27:05.812Z,100370.88
2023-10-03T00:32:08.868Z,100368.92
2023-10-03T00:37:12.040Z,100370.38
2023-10-03T00:42:13.714Z,100365.53
2023-10-03T00:47:15.735Z,100360.92
2023-10-03T00:52:17.476Z,100354.41
2023-10-03T00:57:19.655Z,100349.86
2023-10-03T01:02:22.764Z,100343.90
2023-10-03T01:07:24.464Z,100334.28
2023-10-03T01:12:26.428Z,100331.59
2023-10-03T01:17:31.614Z,100319.78
2023-10-03T01:22:34.296Z,100305.84
2023-10-03T01:27:35.962Z,100290.93
2023-10-03T01:32:44.220Z,100296.30
2023-10-03T01:37:46.476Z,100294.83
2023-10-03T01:42:48.637Z,100286.90
2023-10-03T01:47:51.061Z,100287.75
2023-10-03T01:52:53.761Z,100282.77
2023-10-03T01:57:55.428Z,100270.36
2023-10-03T02:03:05.813Z,100263.70
2023-10-03T02:08:16.629Z,100261.02
2023-10-03T02:13:20.602Z,100252.95
2023-10-03T02:18:22.618Z,100245.91
2023-10-03T02:23:26.129Z,100238.65
2023-10-03T02:28:28.784Z,100233.20
2023-10-03T02:33:30.790Z,100225.57
2023-10-03T02:38:37.570Z,100211.91
2023-10-03T02:43:43.089Z,100200.11
2023-10-03T02:48:44.748Z,100197.19
2023-10-03T02:53:46.985Z,100194.15
2023-10-03T02:58:48.822Z,100188.72
2023-10-03T03:03:51.145Z,100175.02
2023-10-03T03:08:53.245Z,100171.61
2023-10-03T03:13:54.973Z,100160.98
2023-10-03T03:18:56.671Z,100150.70
2023-10-03T03:24:01.116Z,100144.50
2023-10-03T03:29:07.475Z,100141.46
2023-10-03T03:34:09.188Z,100138.48
2023-10-03T03:39:17.154Z,100131.34
2023-10-03T03:44:20.205Z,100126.45
2023-10-03T03:49:23.907Z,100123.61
2023-10-03T03:54:26.520Z,100128.58
2023-10-03T03:59:28.740Z,100130.24
2023-10-03T04:04:30.485Z,100129.55
2023-10-03T04:09:32.732Z,100120.86
2023-10-03T04:14:34.553Z,100109.48
2023-10-03T04:19:36.518Z,100102.97
2023-10-03T04:24:38.297Z,100099.57
2023-10-03T04:29:40.007Z,100103.41
2023-10-03T04:34:42.167Z,100101.66
2023-10-03T04:39:44.245Z,100099.58
2023-10-03T04:44:45.964Z,100093.30
2023-10-03T04:49:47.698Z,100091.63
2023-10-03T04:54:49.373Z,100081.49
2023-10-03T04:59:51.376Z,100075.53
2023-10-03T05:04:53.133Z,100070.39
2023-10-03T05:09:55.119Z,100066.59
2023-10-03T05:14:56.734Z,100065.27
2023-10-03T05:19:59.897Z,100064.35
2023-10-03T05:25:02.099Z,100060.59
2023-10-03T05:30:06.108Z,100056.76
2023-10-03T05:35:09.501Z,100055.24
2023-10-03T05:40:19.713Z,100055.91
2023-10-03T05:45:21.525Z,100057.70
2023-10-03T05:50:24.524Z,100053.23
2023-10-03T05:55:26.378Z,100047.38
2023-10-03T06:00:28.457Z,100037.83
2023-10-03T06:05:30.105Z,100035.98
2023-10-03T06:10:31.716Z,100037.44
2023-10-03T06:15:36.973Z,100032.95
2023-10-03T06:20:39.097Z,100035.48
2023-10-03T06:25:40.841Z,100041.39
2023-10-03T06:30:42.766Z,100036.74
2023-10-03T06:35:44.512Z,100029.29
2023-10-03T06:40:47.038Z,100021.21
2023-10-03T06:45:48.771Z,100017.73
2023-10-03T06:50:51.688Z,100003.73
2023-10-03T06:55:54.369Z,99997.20
2023-10-03T07:00:56.531Z,99995.66
2023-10-03T07:05:59.313Z,99991.98
2023-10-03T07:11:01.870Z,99998.13
2023-10-03T07:16:04.570Z,99995.89
2023-10-03T07:21:06.360Z,99997.80
2023-10-03T07:26:08.234Z,99991.18
2023-10-03T07:31:13.401Z,99985.98
2023-10-03T07:36:17.917Z,99981.52
2023-10-03T07:41:20.785Z,99978.52
2023-10-03T07:46:24.596Z,99979.09
2023-10-03T07:51:30.671Z,99973.89
2023-10-03T07:56:34.110Z,99956.07
2023-10-03T08:01:57.679Z,99947.13
2023-10-03T08:07:01.604Z,99939.36
2023-10-03T08:12:12.302Z,99932.20
2023-10-03T08:17:16.624Z,99924.86
2023-10-03T08:22:20.700Z,99922.21
2023-10-03T08:27:23.104Z,99910.66
2023-10-03T08:32:28.335Z,99893.14
2023-10-03T08:37:30.147Z,99885.08
2023-10-03T08:42:35.056Z,99873.34
2023-10-03T08:47:39.336Z,99864.06
2023-10-03T08:52:49.719Z,99858.13
2023-10-03T08:57:51.697Z,99853.05
2023-10-03T09:03:09.874Z,99841.63
2023-10-03T09:08:16.850Z,99835.48
2023-10-03T09:13:26.831Z,99831.80
2023-10-03T09:18:41.372Z,99826.38
2023-10-03T09:24:27.338Z,99810.33
2023-10-03T09:29:32.556Z,99799.45
2023-10-03T09:34:40.809Z,99785.77
2023-10-03T09:39:52.216Z,99780.56
2023-10-03T09:45:00.678Z,99774.23
2023-10-03T09:50:06.943Z,99777.70
2023-10-03T09:55:21.722Z,99761.02
2023-10-03T10:00:26.055Z,99748.16
2023-10-03T10:05:29.849Z,99745.87
2023-10-03T10:10:34.059Z,99733.40
2023-10-03T10:16:01.749Z,99729.35
2023-10-03T10:21:38.473Z,99721.92
2023-10-03T10:26:40.622Z,99711.79
2023-10-03T10:31:45.737Z,99701.95
2023-10-03T10:37:03.159Z,99687.08
2023-10-03T10:42:10.223Z,99666.75
2023-10-03T10:47:14.939Z,99652.34
2023-10-03T10:52:20.099Z,99634.50
2023-10-03T10:57:27.391Z,99627.33
2023-10-03T11:02:34.146Z,99607.18
2023-10-03T11:07:37.623Z,99592.38
2023-10-03T11:12:39.356Z,99584.13
2023-10-03T11:17:48.985Z,99576.50
2023-10-03T11:22:50.837Z,99564.16
2023-10-03T11:27:52.581Z,99553.10
2023-10-03T11:33:02.044Z,99548.21
2023-10-03T11:38:07.238Z,99540.20
2023-10-03T11:43:08.907Z,99532.16
2023-10-03T11:48:19.825Z,99523.64
2023-10-03T11:53:22.398Z,99508.30
2023-10-03T11:58:24.192Z,99508.72
2023-10-03T12:03:25.843Z,99490.65
2023-10-03T12:08:28.656Z,99470.30
2023-10-03T12:13:30.533Z,99457.59
2023-10-03T12:18:32.322Z,99447.46
2023-10-03T12:23:35.741Z,99443.20
2023-10-03T12:28:37.447Z,99435.84
2023-10-03T12:33:39.192Z,99424.02
2023-10-03T12:38:40.922Z,99421.36
2023-10-03T12:43:47.040Z,99412.45
2023-10-03T12:48:48.838Z,99401.95
2023-10-03T12:53:52.963Z,99400.35
2023-10-03T12:58:57.906Z,99391.58
2023-10-03T13:03:59.967Z,99385.59
2023-10-03T13:09:01.892Z,99367.53
2023-10-03T13:14:04.929Z,99349.86
2023-10-03T13:19:08.168Z,99360.84
2023-10-03T13:24:10.605Z,99350.83
2023-10-03T13:29:12.715Z,99340.44
2023-10-03T13:34:15.081Z,99334.02
2023-10-03T13:39:19.829Z,99318.70
2023-10-03T13:44:21.695Z,99312.17
2023-10-03T13:49:25.133Z,99313.31
2023-10-03T13:54:31.090Z,99314.79
2023-10-03T13:59:33.306Z,99311.56
2023-10-03T14:04:37.202Z,99318.48
2023-10-03T14:09:40.103Z,99309.48
2023-10-03T14:14:43.070Z,99294.98
2023-10-03T14:19:45.000Z,99285.40
2023-10-03T14:24:47.253Z,99290.04
2023-10-03T14:29:48.860Z,99283.65
2023-10-03T14:34:51.965Z,99286.39
2023-10-03T14:39:53.645Z,99267.70
2023-10-03T14:44:55.341Z,99273.20
2023-10-03T14:49:57.911Z,99265.38
2023-10-03T14:54:59.905Z,99263.61
2023-10-03T15:00:02.264Z,99249.17
2023-10-03T15:05:06.847Z,99245.42
2023-10-03T15:10:10.049Z,99240.90
2023-10-03T15:15:12.823Z,99237.19
2023-10-03T15:20:17.457Z,99239.84
2023-10-03T15:25:19.582Z,99238.27
2023-10-03T15:30:21.323Z,99224.65
2023-10-03T15:35:23.448Z,99223.10
2023-10-03T15:40:28.291Z,99216.66
2023-10-03T15:45:34.391Z,99214.09
2023-10-03T15:50:37.079Z,99210.86
2023-10-03T15:55:39.123Z,99199.41
2023-10-03T16:00:41.566Z,99198.66
2023-10-03T16:05:43.271Z,99204.06
2023-10-03T16:10:45.004Z,99206.22
2023-10-03T16:15:48.085Z,99209.33
2023-10-03T16:20:50.014Z,99218.30
2023-10-03T16:25:51.795Z,99224.75
2023-10-03T16:30:53.676Z,99221.09
2023-10-03T16:35:57.326Z,99222.59
2023-10-03T16:40:59.061Z,99228.02
2023-10-03T16:46:04.042Z,99230.19
2023-10-03T16:51:05.852Z,99230.08
2023-10-03T16:56:08.483Z,99227.67
2023-10-03T17:01:10.287Z,99226.86
2023-10-03T17:06:12.241Z,99225.89
2023-10-03T17:11:14.529Z,99226.60
2023-10-03T17:16:16.410Z,99222.25
2023-10-03T17:21:21.695Z,99208.94
2023-10-03T17:26:23.857Z,99199.31
2023-10-03T17:31:25.909Z,99195.33
2023-10-03T17:36:27.899Z,99199.79
2023-10-03T17:41:29.606Z,99198.23
2023-10-03T17:46:32.594Z,99197.58
2023-10-03T17:51:35.320Z,99187.75
2023-10-03T17:56:37.090Z,99191.00
2023-10-03T18:01:38.842Z,99198.21
2023-10-03T18:06:40.681Z,99205.67
2023-10-03T18:11:42.527Z,99209.66
2023-10-03T18:16:44.508Z,99205.83
2023-10-03T18:21:46.742Z,99202.91
2023-10-03T18:26:49.711Z,99197.88
2023-10-03T18:31:51.386Z,99196.89
2023-10-03T18:36:53.058Z,99191.98
2023-10-03T18:41:54.778Z,99190.14
2023-10-03T18:46:56.674Z,99196.84
2023-10-03T18:51:58.493Z,99197.68
2023-10-03T18:57:00.638Z,99194.83
2023-10-03T19:02:02.403Z,99188.69
2023-10-03T19:07:05.016Z,99183.50
2023-10-03T19:12:07.164Z,99179.86
2023-10-03T19:17:09.022Z,99177.48
2023-10-03T19:22:11.413Z,99172.65
2023-10-03T19:27:13.109Z,99155.83
2023-10-03T19:32:18.118Z,99157.50
2023-10-03T19:37:19.870Z,99156.02
2023-10-03T19:42:22.636Z,99151.76
2023-10-03T19:47:24.946Z,99168.77
2023-10-03T19:52:26.590Z,99191.38
2023-10-03T19:57:28.346Z,99210.55
2023-10-03T20:02:29.999Z,99219.85
2023-10-03T20:07:31.717Z,99234.88
2023-10-03T20:12:35.444Z,99228.88
2023-10-03T20:17:37.017Z,99220.70
2023-10-03T20:22:42.735Z,99215.27
2023-10-03T20:27:45.181Z,99212.22
2023-10-03T20:32:46.897Z,99212.16
2023-10-03T20:37:48.835Z,99209.09
2023-10-03T20:42:50.921Z,99191.18
2023-10-03T20:47:53.102Z,99183.27
2023-10-03T20:52:55.002Z,99187.11
2023-10-03T20:57:56.961Z,99210.26
2023-10-03T21:02:58.908Z,99279.79
2023-10-03T21:08:02.830Z,99338.73
2023-10-03T21:13:04.661Z,99338.52
2023-10-03T21:18:09.195Z,99334.86
2023-10-03T21:23:10.889Z,99351.20
2023-10-03T21:28:13.171Z,99370.80
2023-10-03T21:33:14.909Z,99379.81
2023-10-03T21:38:17.664Z,99405.82
2023-10-03T21:43:19.297Z,99423.38
2023-10-03T21:48:21.869Z,99436.00
2023-10-03T21:53:23.608Z,99455.33
2023-10-03T21:58:25.286Z,99464.98
2023-10-03T22:03:28.190Z,99470.16
2023-10-03T22:08:32.344Z,99468.68
2023-10-03T22:13:34.094Z,99445.98
2023-10-03T22:18:38.470Z,99432.67
2023-10-03T22:23:40.304Z,99457.46
2023-10-03T22:28:41.983Z,99474.02
2023-10-03T22:33:44.087Z,99484.11
2023-10-03T22:38:47.078Z,99475.17
2023-10-03T22:43:49.166Z,99489.17
2023-10-03T22:48:51.311Z,99509.04
2023-10-03T22:53:53.166Z,99507.96
2023-10-03T22:58:55.150Z,99529.03
2023-10-03T23:03:56.848Z,99523.45
2023-10-03T23:08:58.561Z,99521.95
2023-10-03T23:14:00.852Z,99547.55
2023-10-03T23:19:03.831Z,99552.46
2023-10-03T23:24:10.509Z,99564.05
2023-10-03T23:29:12.433Z,99584.15
2023-10-03T23:34:16.507Z,99601.05
2023-10-03T23:39:19.944Z,99627.97
2023-10-03T23:44:21.664Z,99641.16
2023-10-03T23:49:23.595Z,99647.77
2023-10-03T23:54:25.247Z,99647.45
2023-10-03T23:59:27.204Z,99656.36
